sensor_id;sensor_type;location;lat;lon;timestamp;P1;durP1;ratioP1;P2;durP2;ratioP2
16600;SDS011;34891;48.164;11.572;2023-02-28T00:03:48;4.97;;;2.50;;
16600;SDS011;34891;48.164;11.572;2023-02-28T00:14:06;0.00;;;0.00;;
16600;SDS011;34891;48.164;11.572;2023-02-28T00:19:23;6.73;;;2.17;;
16600;SDS011;34891;48.164;11.572;2023-02-28T00:24:38;2.83;;;1.27;;
16600;SDS011;34891;48.164;11.572;2023-02-28T00:29:45;0.77;;;0.47;;
16600;SDS011;34891;48.164;11.572;2023-02-28T00:35:03;1.35;;;0.80;;
16600;SDS011;34891;48.164;11.572;2023-02-28T00:40:15;3.10;;;1.67;;
16600;SDS011;34891;48.164;11.572;2023-02-28T00:45:20;2.17;;;1.00;;
16600;SDS011;34891;48.164;11.572;2023-02-28T00:50:39;0.90;;;0.83;;
16600;SDS011;34891;48.164;11.572;2023-02-28T00:55:57;4.50;;;1.70;;
16600;SDS011;34891;48.164;11.572;2023-02-28T01:01:12;3.05;;;1.25;;
16600;SDS011;34891;48.164;11.572;2023-02-28T01:06:17;0.80;;;0.40;;
16600;SDS011;34891;48.164;11.572;2023-02-28T01:16:37;2.60;;;1.27;;
16600;SDS011;34891;48.164;11.572;2023-02-28T01:21:42;7.87;;;1.23;;
16600;SDS011;34891;48.164;11.572;2023-02-28T01:26:53;1.40;;;1.00;;
16600;SDS011;34891;48.164;11.572;2023-02-28T01:31:58;2.17;;;0.93;;
16600;SDS011;34891;48.164;11.572;2023-02-28T01:37:07;4.00;;;0.93;;
16600;SDS011;34891;48.164;11.572;2023-02-28T01:42:20;2.13;;;1.10;;
16600;SDS011;34891;48.164;11.572;2023-02-28T01:47:31;3.33;;;1.53;;
16600;SDS011;34891;48.164;11.572;2023-02-28T01:52:39;1.97;;;1.37;;
16600;SDS011;34891;48.164;11.572;2023-02-28T01:57:50;2.00;;;1.07;;
16600;SDS011;34891;48.164;11.572;2023-02-28T02:02:56;3.53;;;1.77;;
16600;SDS011;34891;48.164;11.572;2023-02-28T02:08:05;4.27;;;1.67;;
16600;SDS011;34891;48.164;11.572;2023-02-28T02:13:30;0.87;;;0.70;;
16600;SDS011;34891;48.164;11.572;2023-02-28T02:18:40;5.07;;;2.17;;
16600;SDS011;34891;48.164;11.572;2023-02-28T02:24:00;1.47;;;1.17;;
16600;SDS011;34891;48.164;11.572;2023-02-28T02:29:20;3.43;;;0.80;;
16600;SDS011;34891;48.164;11.572;2023-02-28T02:34:30;3.30;;;1.60;;
16600;SDS011;34891;48.164;11.572;2023-02-28T02:39:43;2.77;;;0.73;;
16600;SDS011;34891;48.164;11.572;2023-02-28T02:44:48;2.93;;;1.70;;
16600;SDS011;34891;48.164;11.572;2023-02-28T02:54:56;4.07;;;1.13;;
16600;SDS011;34891;48.164;11.572;2023-02-28T02:59:58;2.47;;;1.10;;
16600;SDS011;34891;48.164;11.572;2023-02-28T03:05:15;6.00;;;2.23;;
16600;SDS011;34891;48.164;11.572;2023-02-28T03:10:38;0.77;;;0.63;;
16600;SDS011;34891;48.164;11.572;2023-02-28T03:15:58;2.07;;;1.27;;
16600;SDS011;34891;48.164;11.572;2023-02-28T03:21:12;2.00;;;1.13;;
16600;SDS011;34891;48.164;11.572;2023-02-28T03:26:34;2.37;;;1.23;;
16600;SDS011;34891;48.164;11.572;2023-02-28T03:42:39;3.65;;;1.48;;
16600;SDS011;34891;48.164;11.572;2023-02-28T03:47:48;1.73;;;1.37;;
16600;SDS011;34891;48.164;11.572;2023-02-28T03:52:56;6.43;;;2.37;;
16600;SDS011;34891;48.164;11.572;2023-02-28T03:58:05;9.47;;;2.80;;
16600;SDS011;34891;48.164;11.572;2023-02-28T04:03:12;8.40;;;3.87;;
16600;SDS011;34891;48.164;11.572;2023-02-28T04:08:14;3.03;;;1.13;;
16600;SDS011;34891;48.164;11.572;2023-02-28T04:13:22;3.83;;;1.17;;
16600;SDS011;34891;48.164;11.572;2023-02-28T04:18:25;9.43;;;2.43;;
16600;SDS011;34891;48.164;11.572;2023-02-28T04:23:43;3.53;;;1.63;;
16600;SDS011;34891;48.164;11.572;2023-02-28T04:29:13;6.40;;;3.20;;
16600;SDS011;34891;48.164;11.572;2023-02-28T04:34:18;8.13;;;2.53;;
16600;SDS011;34891;48.164;11.572;2023-02-28T04:39:35;3.23;;;1.67;;
16600;SDS011;34891;48.164;11.572;2023-02-28T04:44:40;6.90;;;2.50;;
16600;SDS011;34891;48.164;11.572;2023-02-28T04:49:54;4.67;;;2.10;;
16600;SDS011;34891;48.164;11.572;2023-02-28T04:54:59;8.90;;;2.90;;
16600;SDS011;34891;48.164;11.572;2023-02-28T05:00:32;6.50;;;3.33;;
16600;SDS011;34891;48.164;11.572;2023-02-28T05:05:44;4.90;;;2.23;;
16600;SDS011;34891;48.164;11.572;2023-02-28T05:10:49;4.03;;;2.58;;
16600;SDS011;34891;48.164;11.572;2023-02-28T05:15:55;4.03;;;2.07;;
16600;SDS011;34891;48.164;11.572;2023-02-28T05:21:27;11.27;;;3.93;;
16600;SDS011;34891;48.164;11.572;2023-02-28T05:26:43;4.43;;;1.63;;
16600;SDS011;34891;48.164;11.572;2023-02-28T05:31:49;3.30;;;2.20;;
16600;SDS011;34891;48.164;11.572;2023-02-28T05:37:20;4.10;;;2.03;;
16600;SDS011;34891;48.164;11.572;2023-02-28T05:47:40;0.97;;;0.87;;
16600;SDS011;34891;48.164;11.572;2023-02-28T05:53:00;3.87;;;1.77;;
16600;SDS011;34891;48.164;11.572;2023-02-28T05:58:10;4.53;;;2.47;;
16600;SDS011;34891;48.164;11.572;2023-02-28T06:08:18;5.93;;;3.33;;
16600;SDS011;34891;48.164;11.572;2023-02-28T06:13:22;16.30;;;3.83;;
16600;SDS011;34891;48.164;11.572;2023-02-28T06:18:26;2.58;;;1.02;;
16600;SDS011;34891;48.164;11.572;2023-02-28T06:23:42;9.03;;;3.63;;
16600;SDS011;34891;48.164;11.572;2023-02-28T06:28:46;9.33;;;3.70;;
16600;SDS011;34891;48.164;11.572;2023-02-28T06:33:49;5.40;;;2.13;;
16600;SDS011;34891;48.164;11.572;2023-02-28T06:39:08;8.47;;;3.10;;
16600;SDS011;34891;48.164;11.572;2023-02-28T06:44:25;5.07;;;2.67;;
16600;SDS011;34891;48.164;11.572;2023-02-28T06:49:42;9.33;;;4.20;;
16600;SDS011;34891;48.164;11.572;2023-02-28T06:54:52;8.60;;;2.93;;
16600;SDS011;34891;48.164;11.572;2023-02-28T07:00:03;11.47;;;3.30;;
16600;SDS011;34891;48.164;11.572;2023-02-28T07:05:13;9.83;;;4.30;;
16600;SDS011;34891;48.164;11.572;2023-02-28T07:10:18;13.60;;;5.47;;
16600;SDS011;34891;48.164;11.572;2023-02-28T07:15:24;10.87;;;3.63;;
16600;SDS011;34891;48.164;11.572;2023-02-28T07:20:29;8.13;;;3.80;;
16600;SDS011;34891;48.164;11.572;2023-02-28T07:25:46;10.35;;;4.38;;
16600;SDS011;34891;48.164;11.572;2023-02-28T07:30:51;10.50;;;4.83;;
16600;SDS011;34891;48.164;11.572;2023-02-28T07:36:02;4.90;;;2.40;;
16600;SDS011;34891;48.164;11.572;2023-02-28T07:41:13;14.13;;;6.03;;
16600;SDS011;34891;48.164;11.572;2023-02-28T07:46:26;15.63;;;6.17;;
16600;SDS011;34891;48.164;11.572;2023-02-28T07:51:32;14.47;;;5.37;;
16600;SDS011;34891;48.164;11.572;2023-02-28T08:01:58;17.73;;;8.57;;
16600;SDS011;34891;48.164;11.572;2023-02-28T08:07:08;8.70;;;3.77;;
16600;SDS011;34891;48.164;11.572;2023-02-28T08:12:17;8.33;;;3.43;;
16600;SDS011;34891;48.164;11.572;2023-02-28T08:17:48;8.50;;;4.13;;
16600;SDS011;34891;48.164;11.572;2023-02-28T08:23:08;6.63;;;3.50;;
16600;SDS011;34891;48.164;11.572;2023-02-28T08:28:25;18.23;;;5.43;;
16600;SDS011;34891;48.164;11.572;2023-02-28T08:33:32;9.87;;;3.40;;
16600;SDS011;34891;48.164;11.572;2023-02-28T08:38:35;10.00;;;4.03;;
16600;SDS011;34891;48.164;11.572;2023-02-28T08:43:46;9.73;;;4.00;;
16600;SDS011;34891;48.164;11.572;2023-02-28T08:48:54;6.30;;;3.10;;
16600;SDS011;34891;48.164;11.572;2023-02-28T08:54:02;9.47;;;4.17;;
16600;SDS011;34891;48.164;11.572;2023-02-28T08:59:08;15.67;;;6.63;;
16600;SDS011;34891;48.164;11.572;2023-02-28T09:04:16;9.30;;;4.87;;
16600;SDS011;34891;48.164;11.572;2023-02-28T09:09:29;11.50;;;4.43;;
16600;SDS011;34891;48.164;11.572;2023-02-28T09:19:41;9.17;;;4.03;;
16600;SDS011;34891;48.164;11.572;2023-02-28T09:24:54;13.23;;;4.33;;
16600;SDS011;34891;48.164;11.572;2023-02-28T09:29:59;10.63;;;4.57;;
16600;SDS011;34891;48.164;11.572;2023-02-28T09:35:06;17.27;;;7.10;;
16600;SDS011;34891;48.164;11.572;2023-02-28T09:40:14;19.40;;;5.27;;
16600;SDS011;34891;48.164;11.572;2023-02-28T09:45:24;10.70;;;5.33;;
16600;SDS011;34891;48.164;11.572;2023-02-28T09:50:38;11.53;;;4.50;;
16600;SDS011;34891;48.164;11.572;2023-02-28T09:55:48;14.13;;;5.87;;
16600;SDS011;34891;48.164;11.572;2023-02-28T10:01:00;9.90;;;5.07;;
16600;SDS011;34891;48.164;11.572;2023-02-28T10:06:16;10.77;;;4.90;;
16600;SDS011;34891;48.164;11.572;2023-02-28T10:11:24;14.70;;;6.90;;
16600;SDS011;34891;48.164;11.572;2023-02-28T10:16:32;14.47;;;6.17;;
16600;SDS011;34891;48.164;11.572;2023-02-28T10:21:56;12.53;;;5.00;;
16600;SDS011;34891;48.164;11.572;2023-02-28T10:33:03;15.63;;;5.68;;
16600;SDS011;34891;48.164;11.572;2023-02-28T10:38:13;10.23;;;4.80;;
16600;SDS011;34891;48.164;11.572;2023-02-28T10:43:27;15.45;;;6.65;;
16600;SDS011;34891;48.164;11.572;2023-02-28T10:48:36;8.68;;;4.55;;
16600;SDS011;34891;48.164;11.572;2023-02-28T10:53:55;12.10;;;5.55;;
16600;SDS011;34891;48.164;11.572;2023-02-28T10:59:27;11.57;;;3.90;;
16600;SDS011;34891;48.164;11.572;2023-02-28T11:04:47;7.28;;;3.70;;
16600;SDS011;34891;48.164;11.572;2023-02-28T11:09:56;10.60;;;4.57;;
16600;SDS011;34891;48.164;11.572;2023-02-28T11:20:33;19.25;;;8.60;;
16600;SDS011;34891;48.164;11.572;2023-02-28T11:25:48;15.32;;;7.82;;
16600;SDS011;34891;48.164;11.572;2023-02-28T11:31:01;15.23;;;7.80;;
16600;SDS011;34891;48.164;11.572;2023-02-28T11:36:10;10.45;;;5.38;;
16600;SDS011;34891;48.164;11.572;2023-02-28T11:41:31;14.75;;;8.70;;
16600;SDS011;34891;48.164;11.572;2023-02-28T11:46:38;15.20;;;8.20;;
16600;SDS011;34891;48.164;11.572;2023-02-28T11:51:59;10.90;;;5.63;;
16600;SDS011;34891;48.164;11.572;2023-02-28T11:57:20;14.68;;;7.78;;
16600;SDS011;34891;48.164;11.572;2023-02-28T12:02:30;15.05;;;8.45;;
16600;SDS011;34891;48.164;11.572;2023-02-28T12:07:42;14.63;;;9.48;;
16600;SDS011;34891;48.164;11.572;2023-02-28T12:13:01;9.93;;;6.75;;
16600;SDS011;34891;48.164;11.572;2023-02-28T12:18:13;14.10;;;7.80;;
16600;SDS011;34891;48.164;11.572;2023-02-28T12:23:27;16.58;;;8.50;;
16600;SDS011;34891;48.164;11.572;2023-02-28T12:28:48;16.38;;;7.47;;
16600;SDS011;34891;48.164;11.572;2023-02-28T12:33:59;13.88;;;7.45;;
16600;SDS011;34891;48.164;11.572;2023-02-28T12:39:04;11.48;;;6.72;;
16600;SDS011;34891;48.164;11.572;2023-02-28T12:44:15;15.20;;;7.93;;
16600;SDS011;34891;48.164;11.572;2023-02-28T12:49:23;13.48;;;6.13;;
16600;SDS011;34891;48.164;11.572;2023-02-28T12:54:37;9.48;;;5.22;;
16600;SDS011;34891;48.164;11.572;2023-02-28T12:59:55;15.15;;;7.45;;
16600;SDS011;34891;48.164;11.572;2023-02-28T13:05:10;12.57;;;6.35;;
16600;SDS011;34891;48.164;11.572;2023-02-28T13:10:20;12.43;;;7.30;;
16600;SDS011;34891;48.164;11.572;2023-02-28T13:15:32;6.93;;;5.13;;
16600;SDS011;34891;48.164;11.572;2023-02-28T13:20:47;12.88;;;7.20;;
16600;SDS011;34891;48.164;11.572;2023-02-28T13:25:55;14.52;;;7.28;;
16600;SDS011;34891;48.164;11.572;2023-02-28T13:31:23;15.80;;;7.65;;
16600;SDS011;34891;48.164;11.572;2023-02-28T13:36:30;16.30;;;7.45;;
16600;SDS011;34891;48.164;11.572;2023-02-28T13:41:43;12.13;;;6.32;;
16600;SDS011;34891;48.164;11.572;2023-02-28T13:52:20;14.13;;;6.28;;
16600;SDS011;34891;48.164;11.572;2023-02-28T13:57:40;8.88;;;4.28;;
16600;SDS011;34891;48.164;11.572;2023-02-28T14:03:06;11.88;;;6.38;;
16600;SDS011;34891;48.164;11.572;2023-02-28T14:08:25;13.15;;;5.97;;
16600;SDS011;34891;48.164;11.572;2023-02-28T14:13:42;14.90;;;5.95;;
16600;SDS011;34891;48.164;11.572;2023-02-28T14:18:50;14.55;;;5.63;;
16600;SDS011;34891;48.164;11.572;2023-02-28T14:24:09;8.02;;;4.20;;
16600;SDS011;34891;48.164;11.572;2023-02-28T14:29:33;10.85;;;4.45;;
16600;SDS011;34891;48.164;11.572;2023-02-28T14:39:48;7.43;;;3.47;;
16600;SDS011;34891;48.164;11.572;2023-02-28T14:44:56;7.07;;;3.47;;
16600;SDS011;34891;48.164;11.572;2023-02-28T14:50:05;13.07;;;4.97;;
16600;SDS011;34891;48.164;11.572;2023-02-28T14:55:16;12.55;;;4.45;;
16600;SDS011;34891;48.164;11.572;2023-02-28T15:00:31;10.95;;;4.43;;
16600;SDS011;34891;48.164;11.572;2023-02-28T15:05:36;11.57;;;6.10;;
16600;SDS011;34891;48.164;11.572;2023-02-28T15:10:45;13.73;;;5.45;;
16600;SDS011;34891;48.164;11.572;2023-02-28T15:15:53;10.45;;;4.28;;
16600;SDS011;34891;48.164;11.572;2023-02-28T15:21:07;9.27;;;3.83;;
16600;SDS011;34891;48.164;11.572;2023-02-28T15:26:23;14.95;;;4.97;;
16600;SDS011;34891;48.164;11.572;2023-02-28T15:31:29;9.23;;;4.45;;
16600;SDS011;34891;48.164;11.572;2023-02-28T15:36:57;23.60;;;7.90;;
16600;SDS011;34891;48.164;11.572;2023-02-28T15:42:16;14.70;;;5.35;;
16600;SDS011;34891;48.164;11.572;2023-02-28T15:47:24;13.70;;;5.28;;
16600;SDS011;34891;48.164;11.572;2023-02-28T15:52:37;12.77;;;5.38;;
16600;SDS011;34891;48.164;11.572;2023-02-28T15:57:44;14.40;;;4.93;;
16600;SDS011;34891;48.164;11.572;2023-02-28T16:02:51;14.23;;;4.93;;
16600;SDS011;34891;48.164;11.572;2023-02-28T16:07:56;13.75;;;5.82;;
16600;SDS011;34891;48.164;11.572;2023-02-28T16:13:05;14.25;;;6.40;;
16600;SDS011;34891;48.164;11.572;2023-02-28T16:18:16;16.50;;;6.07;;
16600;SDS011;34891;48.164;11.572;2023-02-28T16:23:32;13.40;;;5.57;;
16600;SDS011;34891;48.164;11.572;2023-02-28T16:28:38;18.70;;;6.63;;
16600;SDS011;34891;48.164;11.572;2023-02-28T16:33:54;17.02;;;5.95;;
16600;SDS011;34891;48.164;11.572;2023-02-28T16:39:02;10.50;;;4.90;;
16600;SDS011;34891;48.164;11.572;2023-02-28T16:44:26;16.20;;;5.22;;
16600;SDS011;34891;48.164;11.572;2023-02-28T16:49:36;12.85;;;5.15;;
16600;SDS011;34891;48.164;11.572;2023-02-28T16:54:40;10.48;;;4.47;;
16600;SDS011;34891;48.164;11.572;2023-02-28T16:59:51;12.27;;;5.60;;
16600;SDS011;34891;48.164;11.572;2023-02-28T17:04:55;19.30;;;5.77;;
16600;SDS011;34891;48.164;11.572;2023-02-28T17:10:01;25.33;;;7.50;;
16600;SDS011;34891;48.164;11.572;2023-02-28T17:15:14;16.93;;;6.63;;
16600;SDS011;34891;48.164;11.572;2023-02-28T17:20:26;24.67;;;8.73;;
16600;SDS011;34891;48.164;11.572;2023-02-28T17:25:34;28.07;;;8.17;;
16600;SDS011;34891;48.164;11.572;2023-02-28T17:30:42;30.50;;;8.90;;
16600;SDS011;34891;48.164;11.572;2023-02-28T17:36:02;16.27;;;6.07;;
16600;SDS011;34891;48.164;11.572;2023-02-28T17:41:07;21.83;;;8.13;;
16600;SDS011;34891;48.164;11.572;2023-02-28T17:51:30;24.97;;;7.70;;
16600;SDS011;34891;48.164;11.572;2023-02-28T17:56:34;18.93;;;6.77;;
16600;SDS011;34891;48.164;11.572;2023-02-28T18:01:37;19.40;;;7.43;;
16600;SDS011;34891;48.164;11.572;2023-02-28T18:06:44;22.97;;;8.60;;
16600;SDS011;34891;48.164;11.572;2023-02-28T18:11:49;32.03;;;11.63;;
16600;SDS011;34891;48.164;11.572;2023-02-28T18:16:57;17.53;;;6.43;;
16600;SDS011;34891;48.164;11.572;2023-02-28T18:49:24;18.63;;;8.43;;
16600;SDS011;34891;48.164;11.572;2023-02-28T18:54:32;17.02;;;5.57;;
16600;SDS011;34891;48.164;11.572;2023-02-28T18:59:40;13.43;;;6.10;;
16600;SDS011;34891;48.164;11.572;2023-02-28T19:05:01;22.57;;;7.97;;
16600;SDS011;34891;48.164;11.572;2023-02-28T19:10:11;20.37;;;7.80;;
16600;SDS011;34891;48.164;11.572;2023-02-28T19:15:38;16.67;;;7.27;;
16600;SDS011;34891;48.164;11.572;2023-02-28T19:20:49;12.03;;;4.90;;
16600;SDS011;34891;48.164;11.572;2023-02-28T19:25:58;10.17;;;4.47;;
16600;SDS011;34891;48.164;11.572;2023-02-28T19:31:02;14.13;;;5.77;;
16600;SDS011;34891;48.164;11.572;2023-02-28T19:36:12;19.35;;;7.55;;
16600;SDS011;34891;48.164;11.572;2023-02-28T19:41:22;23.00;;;8.20;;
16600;SDS011;34891;48.164;11.572;2023-02-28T19:46:36;14.80;;;4.23;;
16600;SDS011;34891;48.164;11.572;2023-02-28T19:51:45;10.68;;;4.30;;
16600;SDS011;34891;48.164;11.572;2023-02-28T19:56:53;10.03;;;4.37;;
16600;SDS011;34891;48.164;11.572;2023-02-28T20:02:20;17.60;;;6.93;;
16600;SDS011;34891;48.164;11.572;2023-02-28T20:07:30;18.65;;;7.63;;
16600;SDS011;34891;48.164;11.572;2023-02-28T20:12:34;19.57;;;8.37;;
16600;SDS011;34891;48.164;11.572;2023-02-28T20:17:45;16.50;;;5.93;;
16600;SDS011;34891;48.164;11.572;2023-02-28T20:22:54;18.57;;;6.93;;
16600;SDS011;34891;48.164;11.572;2023-02-28T20:28:04;19.03;;;6.17;;
16600;SDS011;34891;48.164;11.572;2023-02-28T20:33:09;20.17;;;6.93;;
16600;SDS011;34891;48.164;11.572;2023-02-28T20:38:19;13.13;;;5.80;;
16600;SDS011;34891;48.164;11.572;2023-02-28T20:43:29;11.53;;;3.93;;
16600;SDS011;34891;48.164;11.572;2023-02-28T20:48:47;17.83;;;6.17;;
16600;SDS011;34891;48.164;11.572;2023-02-28T20:54:06;16.53;;;6.70;;
16600;SDS011;34891;48.164;11.572;2023-02-28T20:59:37;15.60;;;5.23;;
16600;SDS011;34891;48.164;11.572;2023-02-28T21:04:45;10.73;;;3.93;;
16600;SDS011;34891;48.164;11.572;2023-02-28T21:09:56;15.90;;;6.00;;
16600;SDS011;34891;48.164;11.572;2023-02-28T21:15:12;19.30;;;7.57;;
16600;SDS011;34891;48.164;11.572;2023-02-28T21:20:26;15.45;;;5.70;;
16600;SDS011;34891;48.164;11.572;2023-02-28T21:25:45;15.47;;;6.53;;
16600;SDS011;34891;48.164;11.572;2023-02-28T21:30:59;22.87;;;7.50;;
16600;SDS011;34891;48.164;11.572;2023-02-28T21:36:06;18.57;;;6.23;;
16600;SDS011;34891;48.164;11.572;2023-02-28T21:41:30;13.07;;;4.90;;
16600;SDS011;34891;48.164;11.572;2023-02-28T21:46:36;10.13;;;3.53;;
16600;SDS011;34891;48.164;11.572;2023-02-28T21:51:43;12.23;;;5.90;;
16600;SDS011;34891;48.164;11.572;2023-02-28T21:56:48;17.73;;;7.30;;
16600;SDS011;34891;48.164;11.572;2023-02-28T22:01:53;11.53;;;4.10;;
16600;SDS011;34891;48.164;11.572;2023-02-28T22:07:00;13.20;;;5.53;;
16600;SDS011;34891;48.164;11.572;2023-02-28T22:12:10;11.13;;;4.63;;
16600;SDS011;34891;48.164;11.572;2023-02-28T22:17:19;4.07;;;2.70;;
16600;SDS011;34891;48.164;11.572;2023-02-28T22:22:36;15.87;;;6.40;;
16600;SDS011;34891;48.164;11.572;2023-02-28T22:27:44;15.00;;;4.87;;
16600;SDS011;34891;48.164;11.572;2023-02-28T22:32:50;12.40;;;4.70;;
16600;SDS011;34891;48.164;11.572;2023-02-28T22:37:56;10.90;;;4.97;;
16600;SDS011;34891;48.164;11.572;2023-02-28T22:43:02;12.60;;;4.83;;
16600;SDS011;34891;48.164;11.572;2023-02-28T22:48:14;14.00;;;4.80;;
16600;SDS011;34891;48.164;11.572;2023-02-28T22:53:18;13.10;;;4.17;;
16600;SDS011;34891;48.164;11.572;2023-02-28T22:58:31;8.27;;;3.77;;
16600;SDS011;34891;48.164;11.572;2023-02-28T23:03:35;11.37;;;5.50;;
16600;SDS011;34891;48.164;11.572;2023-02-28T23:08:43;17.90;;;6.57;;
16600;SDS011;34891;48.164;11.572;2023-02-28T23:13:56;21.77;;;7.93;;
16600;SDS011;34891;48.164;11.572;2023-02-28T23:19:04;14.57;;;6.27;;
16600;SDS011;34891;48.164;11.572;2023-02-28T23:24:14;14.27;;;4.53;;
16600;SDS011;34891;48.164;11.572;2023-02-28T23:29:21;16.97;;;6.57;;
16600;SDS011;34891;48.164;11.572;2023-02-28T23:34:26;19.87;;;7.37;;
16600;SDS011;34891;48.164;11.572;2023-02-28T23:39:41;17.33;;;6.67;;
16600;SDS011;34891;48.164;11.572;2023-02-28T23:44:49;11.37;;;4.23;;
16600;SDS011;34891;48.164;11.572;2023-02-28T23:49:55;19.10;;;6.53;;
16600;SDS011;34891;48.164;11.572;2023-02-28T23:55:00;21.03;;;7.93;;
